Bookmark and Share
Track history (hours):
 

Eftichia

Last reported at 2014-Apr-23 12:30 UTC. Time now 2014-Apr-23 15:05 UTC.
Position S 26°42' E 153°57'.

Length 181 m; draft 10 m.

Type: Ship. MMSI: 311056400.

NotesDate/timePositionNaut miles runAvg speedWind from/ knotsBaromVisibWave heightAir tempDewpointWater temp
2014-Apr-23 12:30S 26°42' E 153°57'9 8.8
2014-Apr-23 11:32S 26°50' E 153°56'11 8.5
2014-Apr-23 10:15S 27°01' E 153°56'6 8.4
2014-Apr-23 09:30S 27°08' E 153°56'18 8.7
2014-Apr-23 07:28S 27°25' E 153°54'12 8.9
2014-Apr-23 06:06S 27°37' E 153°53'5 9.3
2014-Apr-23 05:33S 27°42' E 153°53'10 9.2
2014-Apr-23 04:31S 27°52' E 153°53'11 8.9
2014-Apr-23 03:18S 28°03' E 153°52'7 9.3
2014-Apr-23 02:33S 28°10' E 153°52'10 9.7
2014-Apr-23 01:31S 28°20' E 153°52'13 9.3
2014-Apr-23 00:06S 28°33' E 153°52'252 8.7
2014-Apr-21 19:03S 32°38' E 152°45'4 8.6
2014-Apr-21 18:33S 32°43' E 152°43'9 8.8
2014-Apr-21 17:29S 32°52' E 152°40'294 9.4
2014-Apr-20 10:12S 37°21' E 150°15'811.6
2014-Apr-20 09:33S 37°28' E 150°11'1211.7
2014-Apr-20 08:33S 37°37' E 150°02'1211.9
2014-Apr-20 07:32S 37°45' E 149°50'1211.8
2014-Apr-20 06:32S 37°52' E 149°38'13811.5
2014-Apr-19 18:33S 39°06' E 147°10'1211.5
2014-Apr-19 17:30S 39°10' E 146°55'1111.1
2014-Apr-19 16:31S 39°14' E 146°42'1111.0
2014-Apr-19 15:33S 39°17' E 146°29'1110.8
2014-Apr-19 14:33S 39°16' E 146°15'1111.1
2014-Apr-19 13:33S 39°15' E 146°01'16311.3
2014-Apr-18 23:05S 38°50' E 142°33'611.8
2014-Apr-18 22:33S 38°49' E 142°25'1110.9
2014-Apr-18 21:33S 38°46' E 142°12'4610.9
2014-Apr-18 17:20S 38°30' E 141°17'810.5
2014-Apr-18 16:33S 38°27' E 141°07'1110.9
2014-Apr-18 15:33S 38°22' E 140°54'1110.6
2014-Apr-18 14:33S 38°16' E 140°43'  

Dump ship's entire track history

sailing weather and tide predictions

Eftichia — C6ZI4 — position and weather